createdAt,value
2018-10-19T00:02:02.200Z,14.50
2018-10-19T00:04:29.622Z,14.10
2018-10-19T00:06:57.152Z,17.20
2018-10-19T00:09:24.552Z,17.90
2018-10-19T00:11:51.975Z,15.53
2018-10-19T00:14:19.381Z,15.83
2018-10-19T00:16:46.819Z,16.03
2018-10-19T00:19:14.217Z,17.23
2018-10-19T00:21:41.635Z,16.03
2018-10-19T00:24:09.040Z,16.97
2018-10-19T00:26:36.459Z,15.63
2018-10-19T00:29:03.942Z,17.30
2018-10-19T00:31:31.284Z,20.93
2018-10-19T00:33:58.724Z,20.77
2018-10-19T00:36:26.135Z,18.90
2018-10-19T00:38:53.573Z,19.97
2018-10-19T00:41:20.979Z,20.43
2018-10-19T00:43:48.403Z,23.03
2018-10-19T00:46:15.807Z,23.43
2018-10-19T00:48:43.245Z,24.43
2018-10-19T00:51:10.776Z,23.47
2018-10-19T00:53:38.276Z,18.63
2018-10-19T00:56:05.690Z,28.33
2018-10-19T00:58:33.111Z,22.30
2018-10-19T01:01:00.536Z,20.13
2018-10-19T01:03:27.986Z,22.83
2018-10-19T01:05:55.404Z,26.80
2018-10-19T01:08:22.815Z,22.87
2018-10-19T01:10:50.248Z,28.20
2018-10-19T01:13:17.659Z,23.47
2018-10-19T01:15:45.074Z,23.67
2018-10-19T01:18:12.495Z,18.90
2018-10-19T01:20:39.925Z,29.20
2018-10-19T01:23:07.350Z,21.80
2018-10-19T01:25:34.767Z,23.97
2018-10-19T01:28:02.192Z,24.50
2018-10-19T01:30:29.614Z,27.50
2018-10-19T01:32:57.034Z,22.20
2018-10-19T01:35:24.419Z,25.23
2018-10-19T01:37:51.859Z,19.43
2018-10-19T01:40:19.268Z,24.03
2018-10-19T01:42:46.697Z,25.07
2018-10-19T01:45:14.130Z,29.53
2018-10-19T01:47:41.520Z,21.50
2018-10-19T01:50:08.912Z,30.87
2018-10-19T01:52:36.348Z,31.47
2018-10-19T01:55:03.752Z,30.63
2018-10-19T01:57:31.164Z,34.57
2018-10-19T01:59:58.566Z,37.07
2018-10-19T02:02:26.002Z,36.20
2018-10-19T02:04:53.454Z,34.60
2018-10-19T02:07:20.852Z,33.27
2018-10-19T02:09:48.370Z,35.87
2018-10-19T02:12:15.792Z,39.53
2018-10-19T02:14:43.225Z,36.03
2018-10-19T02:17:10.706Z,38.77
2018-10-19T02:19:38.072Z,40.27
2018-10-19T02:22:05.488Z,33.80
2018-10-19T02:24:32.924Z,33.70
2018-10-19T02:27:00.360Z,34.80
2018-10-19T02:29:27.756Z,35.23
2018-10-19T02:31:55.188Z,38.93
2018-10-19T02:34:22.601Z,36.97
2018-10-19T02:36:50.031Z,33.27
2018-10-19T02:39:17.493Z,38.70
2018-10-19T02:41:44.877Z,42.40
2018-10-19T02:44:12.295Z,38.43
2018-10-19T02:46:39.727Z,37.50
2018-10-19T02:49:07.142Z,41.27
2018-10-19T02:51:34.577Z,46.73
2018-10-19T02:54:01.993Z,44.73
2018-10-19T02:56:29.448Z,44.93
2018-10-19T02:58:56.856Z,52.30
2018-10-19T03:01:24.250Z,51.63
2018-10-19T03:03:51.686Z,46.60
2018-10-19T03:06:19.080Z,44.13
2018-10-19T03:08:46.519Z,54.17
2018-10-19T03:11:13.981Z,55.50
2018-10-19T03:13:41.357Z,48.87
2018-10-19T03:16:08.760Z,51.57
2018-10-19T03:18:36.204Z,45.67
2018-10-19T03:21:03.622Z,45.90
2018-10-19T03:23:31.029Z,38.57
2018-10-19T03:25:58.436Z,37.53
2018-10-19T03:28:25.862Z,34.97
2018-10-19T03:30:53.335Z,37.27
2018-10-19T03:33:20.716Z,41.20
2018-10-19T03:35:48.111Z,47.43
2018-10-19T03:38:15.535Z,42.57
2018-10-19T03:40:42.946Z,39.20
2018-10-19T03:43:10.346Z,46.53
2018-10-19T03:45:37.776Z,34.17
2018-10-19T03:48:05.182Z,35.27
2018-10-19T03:50:32.600Z,31.57
2018-10-19T03:53:00.068Z,31.57
2018-10-19T03:55:27.484Z,33.17
2018-10-19T03:57:54.903Z,32.60
2018-10-19T04:00:22.331Z,31.17
2018-10-19T04:02:49.737Z,37.57
2018-10-19T04:05:17.249Z,33.33
2018-10-19T04:07:44.583Z,32.03
2018-10-19T04:10:12.050Z,36.50
2018-10-19T04:12:39.474Z,42.13
2018-10-19T04:15:06.920Z,38.70
2018-10-19T04:17:34.325Z,42.30
2018-10-19T04:20:01.758Z,46.70
2018-10-19T04:22:29.175Z,38.57
2018-10-19T04:24:56.609Z,42.77
2018-10-19T04:27:24.052Z,40.67
2018-10-19T04:29:51.448Z,40.97
2018-10-19T04:32:18.880Z,42.63
2018-10-19T04:34:46.282Z,41.83
2018-10-19T04:37:13.714Z,39.23
2018-10-19T04:39:41.134Z,40.87
2018-10-19T04:42:08.753Z,33.67
2018-10-19T04:44:35.968Z,39.97
2018-10-19T04:47:03.530Z,39.30
2018-10-19T04:49:30.925Z,38.37
2018-10-19T04:51:58.321Z,41.10
2018-10-19T04:54:25.750Z,38.80
2018-10-19T04:56:53.167Z,42.97
2018-10-19T04:59:20.615Z,43.47
2018-10-19T05:01:48.006Z,37.90
2018-10-19T05:04:15.417Z,38.67
2018-10-19T05:06:42.934Z,43.00
2018-10-19T05:09:10.296Z,46.90
2018-10-19T05:11:37.730Z,43.77
2018-10-19T05:14:05.227Z,48.77
2018-10-19T05:16:32.587Z,43.43
2018-10-19T05:18:59.981Z,47.60
2018-10-19T05:21:27.377Z,46.10
2018-10-19T05:23:54.835Z,48.70
2018-10-19T05:26:22.251Z,50.73
2018-10-19T05:28:49.671Z,53.13
2018-10-19T05:31:17.081Z,45.37
2018-10-19T05:33:44.512Z,46.13
2018-10-19T05:36:11.918Z,50.53
2018-10-19T05:38:39.352Z,44.70
2018-10-19T05:41:06.816Z,43.83
2018-10-19T05:43:34.237Z,39.87
2018-10-19T05:46:01.630Z,43.90
2018-10-19T05:48:29.052Z,40.00
2018-10-19T05:50:56.466Z,47.23
2018-10-19T05:53:23.895Z,47.70
2018-10-19T05:55:51.323Z,41.80
2018-10-19T05:58:18.735Z,41.63
2018-10-19T06:00:46.229Z,44.23
2018-10-19T06:03:13.649Z,41.97
2018-10-19T06:05:41.121Z,41.30
2018-10-19T06:08:08.556Z,44.37
2018-10-19T06:10:35.953Z,47.43
2018-10-19T06:13:03.418Z,51.27
2018-10-19T06:15:30.778Z,46.17
2018-10-19T06:17:58.194Z,49.60
2018-10-19T06:20:25.622Z,48.73
2018-10-19T06:22:53.042Z,46.30
2018-10-19T06:25:20.507Z,46.93
2018-10-19T06:27:47.892Z,46.50
2018-10-19T06:30:15.315Z,52.37
2018-10-19T06:32:42.762Z,48.23
2018-10-19T06:35:10.175Z,50.37
2018-10-19T06:37:37.575Z,45.53
2018-10-19T06:40:04.996Z,48.63
2018-10-19T06:42:32.435Z,50.90
2018-10-19T06:44:59.849Z,47.60
2018-10-19T06:47:27.279Z,48.30
2018-10-19T06:49:54.707Z,51.30
2018-10-19T06:52:22.104Z,48.93
2018-10-19T06:54:49.550Z,43.33
2018-10-19T06:57:16.960Z,50.93
2018-10-19T06:59:44.366Z,47.23
2018-10-19T07:02:11.842Z,48.43
2018-10-19T07:04:39.230Z,46.90
2018-10-19T07:07:06.692Z,50.23
2018-10-19T07:09:34.113Z,51.10
2018-10-19T07:12:01.564Z,49.67
2018-10-19T07:14:28.935Z,49.87
2018-10-19T07:16:56.474Z,61.50
2018-10-19T07:19:23.878Z,51.70
2018-10-19T07:21:51.343Z,56.20
2018-10-19T07:24:18.728Z,55.00
2018-10-19T07:26:46.168Z,54.87
2018-10-19T07:29:13.660Z,56.97
2018-10-19T07:31:41.050Z,56.33
2018-10-19T07:34:08.482Z,55.27
2018-10-19T07:36:35.949Z,59.80
2018-10-19T07:39:03.360Z,55.87
2018-10-19T07:41:30.785Z,58.03
2018-10-19T07:43:58.267Z,50.93
2018-10-19T07:46:25.614Z,58.33
2018-10-19T07:48:53.061Z,52.50
2018-10-19T07:51:20.454Z,54.90
2018-10-19T07:53:47.869Z,54.17
2018-10-19T07:56:15.422Z,53.87
2018-10-19T07:58:42.740Z,48.53
2018-10-19T08:01:10.224Z,58.80
2018-10-19T08:03:37.591Z,53.90
2018-10-19T08:06:04.998Z,53.17
2018-10-19T08:08:32.409Z,55.90
2018-10-19T08:10:59.869Z,57.77
2018-10-19T08:13:27.272Z,55.70
2018-10-19T08:15:54.697Z,56.50
2018-10-19T08:18:22.394Z,59.27
2018-10-19T08:20:49.805Z,57.40
2018-10-19T08:23:17.320Z,64.40
2018-10-19T08:25:44.759Z,60.97
2018-10-19T08:28:12.126Z,60.40
2018-10-19T08:30:39.574Z,60.30
2018-10-19T08:33:06.988Z,63.93
2018-10-19T08:35:34.400Z,58.40
2018-10-19T08:38:01.797Z,62.23
2018-10-19T08:40:29.232Z,64.67
2018-10-19T08:42:56.686Z,61.90
2018-10-19T08:45:24.071Z,76.77
2018-10-19T08:50:18.917Z,71.47
2018-10-19T08:52:46.357Z,80.80
2018-10-19T08:55:13.782Z,76.57
2018-10-19T08:57:41.219Z,74.70
2018-10-19T09:00:08.653Z,75.03
2018-10-19T09:02:36.048Z,71.47
2018-10-19T09:05:03.595Z,81.37
2018-10-19T09:07:30.943Z,73.33
2018-10-19T09:09:58.355Z,72.50
2018-10-19T09:12:25.872Z,69.70
2018-10-19T09:14:53.246Z,69.83
2018-10-19T09:17:20.744Z,66.73
2018-10-19T09:19:48.144Z,63.77
2018-10-19T09:22:15.539Z,69.97
2018-10-19T09:24:42.960Z,65.30
2018-10-19T09:27:10.476Z,64.93
2018-10-19T09:29:37.909Z,65.43
2018-10-19T09:32:05.223Z,63.70
2018-10-19T09:34:32.647Z,72.80
2018-10-19T09:37:00.121Z,67.50
2018-10-19T09:39:27.496Z,57.83
2018-10-19T09:41:54.974Z,56.97
2018-10-19T09:44:22.346Z,63.87
2018-10-19T09:46:49.758Z,64.90
2018-10-19T09:49:17.182Z,54.33
2018-10-19T09:51:44.589Z,57.57
2018-10-19T09:54:12.047Z,59.23
2018-10-19T09:56:39.448Z,67.50
2018-10-19T09:59:06.939Z,54.10
2018-10-19T10:01:34.279Z,58.73
2018-10-19T10:04:01.722Z,62.33
2018-10-19T10:06:29.124Z,55.07
2018-10-19T10:08:56.597Z,60.53
2018-10-19T10:11:23.952Z,61.53
2018-10-19T10:13:51.393Z,63.00
2018-10-19T10:16:18.818Z,67.80
2018-10-19T10:18:46.217Z,56.43
2018-10-19T10:21:13.646Z,59.70
2018-10-19T10:23:41.062Z,57.90
2018-10-19T10:26:08.495Z,63.47
2018-10-19T10:28:35.924Z,56.70
2018-10-19T10:31:03.358Z,56.63
2018-10-19T10:33:30.781Z,57.30
2018-10-19T10:35:58.250Z,60.57
2018-10-19T10:38:25.659Z,59.17
2018-10-19T10:40:53.087Z,57.47
2018-10-19T10:43:20.523Z,59.00
2018-10-19T10:45:47.929Z,59.93
2018-10-19T10:48:15.359Z,57.60
2018-10-19T10:50:42.766Z,53.23
2018-10-19T10:53:10.196Z,52.97
2018-10-19T10:55:37.601Z,55.47
2018-10-19T10:58:05.099Z,58.90
2018-10-19T11:00:32.446Z,57.70
2018-10-19T11:02:59.899Z,58.50
2018-10-19T11:05:27.307Z,59.70
2018-10-19T11:07:54.718Z,57.53
2018-10-19T11:10:22.144Z,53.57
2018-10-19T11:12:49.571Z,55.80
2018-10-19T11:15:16.977Z,55.53
2018-10-19T11:17:44.403Z,52.67
2018-10-19T11:20:11.815Z,54.83
2018-10-19T11:22:39.266Z,56.90
2018-10-19T11:25:06.792Z,53.37
2018-10-19T11:27:34.172Z,56.90
2018-10-19T11:30:01.618Z,53.27
2018-10-19T11:32:29.028Z,57.27
2018-10-19T11:34:56.463Z,61.10
2018-10-19T11:37:23.985Z,58.93
2018-10-19T11:39:51.398Z,63.43
2018-10-19T11:42:18.803Z,65.50
2018-10-19T11:44:46.240Z,62.47
2018-10-19T11:47:13.642Z,60.43
2018-10-19T11:49:41.075Z,60.53
2018-10-19T11:52:08.519Z,61.13
2018-10-19T11:54:35.919Z,68.73
2018-10-19T11:57:03.352Z,63.83
2018-10-19T11:59:30.760Z,62.30
2018-10-19T12:01:58.170Z,60.90
2018-10-19T12:04:25.591Z,60.53
2018-10-19T12:06:53.040Z,57.90
2018-10-19T12:09:20.422Z,55.50
2018-10-19T12:11:47.827Z,49.90
2018-10-19T12:14:15.256Z,52.80
2018-10-19T12:16:42.718Z,56.00
2018-10-19T12:19:10.154Z,58.73
2018-10-19T12:21:37.531Z,57.00
2018-10-19T12:24:04.927Z,54.67
2018-10-19T12:26:32.356Z,57.43
2018-10-19T12:28:59.784Z,53.53
2018-10-19T12:31:27.204Z,54.33
2018-10-19T12:33:54.640Z,53.30
2018-10-19T12:36:22.042Z,52.97
2018-10-19T12:38:49.476Z,48.37
2018-10-19T12:41:16.951Z,51.33
2018-10-19T12:43:44.343Z,44.73
2018-10-19T12:46:49.050Z,46.97
2018-10-19T12:49:16.515Z,49.53
2018-10-19T12:51:43.926Z,50.53
2018-10-19T12:54:11.384Z,49.53
2018-10-19T12:56:38.796Z,46.33
2018-10-19T12:59:06.233Z,45.77
2018-10-19T13:01:33.650Z,58.37
2018-10-19T13:04:01.051Z,48.40
2018-10-19T13:06:28.505Z,49.57
2018-10-19T13:08:55.918Z,46.07
2018-10-19T13:11:23.346Z,43.13
2018-10-19T13:13:50.774Z,44.40
2018-10-19T13:16:18.239Z,50.60
2018-10-19T13:18:45.628Z,45.33
2018-10-19T13:21:13.123Z,45.33
2018-10-19T13:23:40.473Z,44.23
2018-10-19T13:26:07.869Z,43.63
2018-10-19T13:28:35.301Z,41.10
2018-10-19T13:31:02.710Z,45.83
2018-10-19T13:33:30.131Z,43.03
2018-10-19T13:35:57.555Z,38.60
2018-10-19T13:38:24.965Z,34.27
2018-10-19T13:40:52.402Z,39.27
2018-10-19T13:43:19.810Z,40.90
2018-10-19T13:45:47.272Z,44.30
2018-10-19T13:48:14.687Z,42.43
2018-10-19T13:50:42.122Z,39.00
2018-10-19T13:53:11.691Z,36.13
2018-10-19T13:55:39.075Z,42.80
2018-10-19T13:58:06.523Z,43.23
2018-10-19T14:00:33.999Z,39.27
2018-10-19T14:03:01.408Z,37.10
2018-10-19T14:05:28.962Z,37.97
2018-10-19T14:07:56.226Z,35.33
2018-10-19T14:10:23.671Z,33.97
2018-10-19T14:12:51.091Z,31.70
2018-10-19T14:15:18.498Z,30.73
2018-10-19T14:17:45.895Z,30.47
2018-10-19T14:20:13.306Z,38.77
2018-10-19T14:22:40.730Z,37.03
2018-10-19T14:25:08.164Z,33.67
2018-10-19T14:27:35.593Z,31.63
2018-10-19T14:30:02.993Z,32.20
2018-10-19T14:32:30.418Z,30.37
2018-10-19T14:34:57.819Z,31.67
2018-10-19T14:37:25.242Z,32.50
2018-10-19T14:39:52.861Z,29.47
2018-10-19T14:42:20.268Z,31.83
2018-10-19T14:44:47.680Z,28.10
2018-10-19T14:47:15.267Z,31.73
2018-10-19T14:49:42.604Z,29.63
2018-10-19T14:52:10.012Z,27.00
2018-10-19T14:54:37.521Z,32.40
2018-10-19T14:57:04.927Z,28.07
2018-10-19T14:59:32.285Z,25.70
2018-10-19T15:01:59.694Z,24.00
2018-10-19T15:04:27.120Z,23.27
2018-10-19T15:06:54.521Z,25.40
2018-10-19T15:09:22.052Z,21.83
2018-10-19T15:11:49.452Z,27.67
2018-10-19T15:14:16.815Z,27.83
2018-10-19T15:16:44.231Z,30.03
2018-10-19T15:19:11.664Z,27.70
2018-10-19T15:21:39.074Z,30.03
2018-10-19T15:24:06.525Z,30.33
2018-10-19T15:26:33.923Z,29.70
2018-10-19T15:29:01.365Z,31.40
2018-10-19T15:31:28.752Z,28.93
2018-10-19T15:33:56.164Z,31.23
2018-10-19T15:36:23.665Z,31.07
2018-10-19T15:38:50.980Z,38.83
2018-10-19T15:41:18.405Z,27.83
2018-10-19T15:43:45.802Z,31.47
2018-10-19T15:46:13.223Z,31.93
2018-10-19T15:48:40.651Z,29.87
2018-10-19T15:51:08.123Z,30.70
2018-10-19T15:53:35.481Z,27.67
2018-10-19T15:56:02.915Z,27.87
2018-10-19T15:58:30.311Z,28.17
2018-10-19T16:00:57.740Z,27.00
2018-10-19T16:03:25.135Z,27.43
2018-10-19T16:05:52.602Z,26.87
2018-10-19T16:08:20.055Z,30.90
2018-10-19T16:10:47.446Z,27.10
2018-10-19T16:13:14.896Z,26.50
2018-10-19T16:15:42.323Z,25.47
2018-10-19T16:18:09.816Z,23.03
2018-10-19T16:20:37.151Z,28.13
2018-10-19T16:23:04.598Z,23.40
2018-10-19T16:25:32.003Z,26.70
2018-10-19T16:27:59.433Z,31.57
2018-10-19T16:30:26.863Z,24.30
2018-10-19T16:32:54.284Z,24.03
2018-10-19T16:35:21.709Z,25.93
2018-10-19T16:37:49.125Z,25.03
2018-10-19T16:40:16.549Z,28.43
2018-10-19T16:42:43.947Z,22.57
2018-10-19T16:45:11.459Z,24.10
2018-10-19T16:47:38.826Z,28.40
2018-10-19T16:50:06.223Z,28.57
2018-10-19T16:52:33.696Z,27.13
2018-10-19T16:55:01.068Z,30.60
2018-10-19T16:57:28.514Z,27.80
2018-10-19T16:59:55.963Z,27.63
2018-10-19T17:02:23.318Z,22.57
2018-10-19T17:04:50.770Z,27.30
2018-10-19T17:07:18.167Z,26.97
2018-10-19T17:09:45.564Z,26.37
2018-10-19T17:12:13.082Z,24.23
2018-10-19T17:14:40.556Z,22.63
2018-10-19T17:17:08.195Z,27.57
2018-10-19T17:19:35.712Z,26.30
2018-10-19T17:22:03.207Z,35.07
2018-10-19T17:24:30.554Z,27.60
2018-10-19T17:26:58.115Z,29.57
2018-10-19T17:29:25.728Z,26.37
2018-10-19T17:31:53.115Z,29.87
2018-10-19T17:34:20.521Z,26.20
2018-10-19T17:36:47.955Z,29.63
2018-10-19T17:39:15.494Z,28.90
2018-10-19T17:41:42.801Z,26.13
2018-10-19T17:44:10.257Z,29.67
2018-10-19T17:46:37.679Z,30.03
2018-10-19T17:49:05.146Z,31.43
2018-10-19T17:51:32.490Z,30.60
2018-10-19T17:53:59.982Z,30.40
2018-10-19T17:56:27.319Z,40.53
2018-10-19T17:58:54.747Z,34.63
2018-10-19T18:01:22.172Z,34.23
2018-10-19T18:03:49.571Z,29.93
2018-10-19T18:06:16.990Z,34.33
2018-10-19T18:08:44.389Z,26.90
2018-10-19T18:11:11.864Z,30.80
2018-10-19T18:13:39.257Z,29.60
2018-10-19T18:16:06.707Z,27.90
2018-10-19T18:18:34.071Z,30.60
2018-10-19T18:21:01.527Z,35.40
2018-10-19T18:23:28.895Z,30.57
2018-10-19T18:25:56.373Z,29.70
2018-10-19T18:28:23.752Z,30.07
2018-10-19T18:30:51.149Z,32.87
2018-10-19T18:33:18.570Z,28.40
2018-10-19T18:35:45.980Z,32.70
2018-10-19T18:38:13.473Z,28.50
2018-10-19T18:40:40.894Z,32.23
2018-10-19T18:43:08.305Z,32.03
2018-10-19T18:45:35.699Z,31.47
2018-10-19T18:48:03.128Z,32.03
2018-10-19T18:50:30.675Z,28.83
2018-10-19T18:52:57.987Z,35.80
2018-10-19T18:55:25.419Z,31.23
2018-10-19T18:57:52.888Z,33.63
2018-10-19T19:00:20.289Z,25.03
2018-10-19T19:02:47.921Z,31.87
2018-10-19T19:05:15.544Z,29.67
2018-10-19T19:07:42.860Z,36.83
2018-10-19T19:10:10.305Z,30.23
2018-10-19T19:12:37.723Z,32.40
2018-10-19T19:15:05.161Z,39.07
2018-10-19T19:17:32.584Z,31.20
2018-10-19T19:20:00.026Z,30.40
2018-10-19T19:22:27.403Z,29.73
2018-10-19T19:24:54.814Z,33.43
2018-10-19T19:27:22.235Z,32.37
2018-10-19T19:29:49.638Z,35.13
2018-10-19T19:32:17.056Z,32.70
2018-10-19T19:34:44.480Z,30.17
2018-10-19T19:37:11.890Z,32.83
2018-10-19T19:39:39.414Z,29.90
2018-10-19T19:42:06.819Z,33.03
2018-10-19T19:44:34.229Z,30.20
2018-10-19T19:47:01.729Z,30.63
2018-10-19T19:49:35.019Z,35.63
2018-10-19T19:52:02.403Z,40.43
2018-10-19T19:54:29.765Z,32.63
2018-10-19T19:56:57.186Z,32.10
2018-10-19T19:59:24.642Z,35.87
2018-10-19T20:01:52.015Z,34.67
2018-10-19T20:04:19.443Z,36.90
2018-10-19T20:06:46.874Z,37.57
2018-10-19T20:09:14.280Z,33.77
2018-10-19T20:11:41.706Z,41.27
2018-10-19T20:14:09.223Z,37.70
2018-10-19T20:16:36.648Z,42.77
2018-10-19T20:19:04.000Z,43.40
2018-10-19T20:21:31.423Z,39.23
2018-10-19T20:23:58.851Z,37.37
2018-10-19T20:26:26.254Z,33.00
2018-10-19T20:28:53.711Z,39.53
2018-10-19T20:31:21.110Z,34.60
2018-10-19T20:33:48.538Z,34.67
2018-10-19T20:36:15.948Z,34.47
2018-10-19T20:38:43.370Z,33.47
2018-10-19T20:41:10.797Z,32.30
2018-10-19T20:43:38.186Z,37.37
2018-10-19T20:46:05.658Z,33.00
2018-10-19T20:48:33.039Z,33.90
2018-10-19T20:51:00.461Z,34.00
2018-10-19T20:53:27.906Z,33.47
2018-10-19T20:55:55.365Z,35.70
2018-10-19T20:58:22.729Z,33.83
2018-10-19T21:00:50.225Z,32.07
2018-10-19T21:03:17.561Z,31.27
2018-10-19T21:05:44.996Z,37.13
2018-10-19T21:08:12.505Z,32.60
2018-10-19T21:10:39.864Z,34.53
2018-10-19T21:13:07.264Z,31.87
2018-10-19T21:15:34.690Z,34.90
2018-10-19T21:18:02.114Z,30.63
2018-10-19T21:20:29.546Z,35.90
2018-10-19T21:22:57.012Z,29.10
2018-10-19T21:25:24.371Z,30.33
2018-10-19T21:27:51.792Z,28.40
2018-10-19T21:30:19.192Z,30.33
2018-10-19T21:32:46.615Z,30.60
2018-10-19T21:35:14.071Z,27.17
2018-10-19T21:37:41.447Z,24.77
2018-10-19T21:40:08.845Z,29.67
2018-10-19T21:42:36.286Z,28.23
2018-10-19T21:45:03.680Z,30.47
2018-10-19T21:47:31.075Z,30.13
2018-10-19T21:49:58.512Z,27.40
2018-10-19T21:52:25.905Z,27.63
2018-10-19T21:54:53.305Z,27.73
2018-10-19T21:57:20.724Z,23.13
2018-10-19T21:59:48.132Z,28.27
2018-10-19T22:02:15.626Z,26.13
2018-10-19T22:04:42.979Z,26.90
2018-10-19T22:07:10.384Z,27.40
2018-10-19T22:09:37.809Z,30.67
2018-10-19T22:12:05.215Z,29.70
2018-10-19T22:14:32.639Z,30.43
2018-10-19T22:17:00.099Z,30.20
2018-10-19T22:19:27.466Z,28.43
2018-10-19T22:21:54.864Z,30.73
2018-10-19T22:24:22.278Z,28.77
2018-10-19T22:26:49.699Z,25.97
2018-10-19T22:29:17.194Z,29.90
2018-10-19T22:31:44.539Z,31.97
2018-10-19T22:34:11.939Z,28.30
2018-10-19T22:36:39.390Z,27.00
2018-10-19T22:39:06.793Z,27.87
2018-10-19T22:41:34.213Z,29.53
2018-10-19T22:44:01.609Z,27.77
2018-10-19T22:46:29.036Z,29.47
2018-10-19T22:48:56.523Z,32.17
2018-10-19T22:51:23.991Z,31.23
2018-10-19T22:53:51.363Z,35.27
2018-10-19T22:56:18.807Z,30.73
2018-10-19T22:58:46.279Z,29.37
2018-10-19T23:01:13.710Z,30.33
2018-10-19T23:03:41.074Z,33.93
2018-10-19T23:06:08.493Z,28.20
2018-10-19T23:08:35.917Z,31.57
2018-10-19T23:11:03.384Z,28.37
2018-10-19T23:13:30.750Z,29.80
2018-10-19T23:15:58.173Z,29.33
2018-10-19T23:18:25.604Z,31.30
2018-10-19T23:20:53.018Z,33.53
2018-10-19T23:23:20.454Z,33.03
2018-10-19T23:25:47.861Z,33.27
2018-10-19T23:28:15.265Z,28.50
2018-10-19T23:30:42.710Z,31.93
2018-10-19T23:33:10.087Z,33.00
2018-10-19T23:35:37.509Z,33.03
2018-10-19T23:38:04.905Z,30.80
2018-10-19T23:40:32.325Z,28.80
2018-10-19T23:42:59.743Z,26.93
2018-10-19T23:45:27.150Z,31.53
2018-10-19T23:47:54.545Z,31.63
2018-10-19T23:50:21.966Z,28.87
2018-10-19T23:52:49.362Z,31.77
2018-10-19T23:55:16.963Z,35.93
2018-10-19T23:57:44.269Z,39.87
